Rechercher aéroport 
image banner adimage banner adimage banner ad
image banner ad

CN43 - Anaheim Canyon Tower

Situé à Anaheim, United States

ICAO - CN43, IATA -

Données fournies par Airmate  

Information générale

Coordonnées: N33°51'36" W117°51'1"
Élévation : 342 feet MSL.
Variation magnétique : 14° East
Voir autres Aéroports à California

Données opérationnelles

Special qualification required
Heure actuelle UTC:
Heure actuelle locale:
Météo à : KFUL - Fullerton Muni ( 12 km )
METAR: KFUL 210053Z VRB03KT 10SM CLR 26/15 A2987 RMK AO2 SLP115 T02560150
Voir NOTAMs / SUP AIP / TFR affectant cet aéroport [VIEW]
Fréquences de communication: [VIEW]

Pistes:

Coordonnées de l'aéroport

Adresse: Anaheim United States

Vue satellite de CN43